Time;durP1;ratioP1;P1;durP2;ratioP2;P2;SDS_P1;SDS_P2;PMS_P1;PMS_P2;Temp;Humidity;BMP_temperature;BMP_pressure;BME280_temperature;BME280_humidity;BME280_pressure;Samples;Min_cycle;Max_cycle;Signal;HPM_P1;HPM_P2
2021/12/21 00:01:53;;;;;;;;;0.00;0.00;;;;;5.44;56.37;102067.66;5061493;28;45930;-80
2021/12/21 00:04:18;;;;;;;;;0.75;0.00;;;;;5.65;56.37;102110.88;5062543;28;45291;-80
2021/12/21 00:06:44;;;;;;;;;0.00;0.00;;;;;5.44;57.04;102081.47;5063251;28;45281;-80
2021/12/21 00:09:09;;;;;;;;;2.25;0.50;;;;;5.36;56.32;102061.22;5062933;28;45522;-80
2021/12/21 00:11:36;;;;;;;;;0.00;0.00;;;;;5.56;57.06;102104.47;5061502;28;45384;-80
2021/12/21 00:22:11;;;;;;;;;0.00;0.00;;;;;5.42;57.30;102087.38;5062457;28;45263;-80
2021/12/21 00:24:45;;;;;;;;;0.00;0.00;;;;;5.39;57.25;102089.78;5062514;28;45323;-81
2021/12/21 00:27:12;;;;;;;;;1.00;1.00;;;;;5.37;57.11;102083.63;5061550;28;45393;-80
2021/12/21 00:29:38;;;;;;;;;0.00;0.00;;;;;5.33;57.14;102082.63;5063025;28;45525;-81
2021/12/21 00:32:03;;;;;;;;;0.50;0.50;;;;;5.22;56.86;102069.13;5056708;28;46286;-79
2021/12/21 00:34:29;;;;;;;;;0.50;0.50;;;;;5.06;57.23;102049.38;5042421;28;45284;-79
2021/12/21 00:36:54;;;;;;;;;1.00;0.00;;;;;5.24;57.42;102079.53;5041064;28;45221;-80
2021/12/21 00:39:20;;;;;;;;;0.00;0.00;;;;;5.06;57.70;102057.97;5042345;28;45220;-80
2021/12/21 00:41:45;;;;;;;;;0.25;0.25;;;;;5.20;57.89;102088.81;5042080;28;45550;-80
2021/12/21 00:44:10;;;;;;;;;0.00;0.00;;;;;4.95;57.23;102043.63;5042187;28;45291;-80
2021/12/21 00:46:38;;;;;;;;;0.00;0.00;;;;;4.99;57.21;102050.72;5042373;28;45355;-81
2021/12/21 00:49:13;;;;;;;;;1.00;0.75;;;;;5.20;58.04;102089.72;5057894;28;45268;-81
2021/12/21 00:51:40;;;;;;;;;1.00;1.00;;;;;5.20;57.29;102084.53;5042369;28;46145;-81
2021/12/21 00:54:05;;;;;;;;;0.00;0.00;;;;;5.20;57.20;102086.22;5042134;28;45362;-82
2021/12/21 00:56:30;;;;;;;;;0.75;0.75;;;;;4.66;57.60;101994.81;5041192;28;45355;-80
2021/12/21 00:58:56;;;;;;;;;0.00;0.00;;;;;4.98;57.42;102048.97;5042840;28;45465;-81
2021/12/21 01:01:21;;;;;;;;;1.00;0.00;;;;;4.75;57.22;102012.50;5042132;28;45346;-80
2021/12/21 01:03:51;;;;;;;;;0.00;0.00;;;;;4.92;57.51;102038.31;5042167;28;45263;-80
2021/12/21 01:06:26;;;;;;;;;0.00;0.00;;;;;4.98;57.62;102048.06;5042430;28;45286;-81
2021/12/21 01:11:27;;;;;;;;;0.00;0.00;;;;;4.77;57.41;102007.41;5041839;28;45488;-81
2021/12/21 01:14:08;;;;;;;;;0.00;0.00;;;;;4.71;57.65;102000.25;5042046;28;45284;-81
2021/12/21 01:19:09;;;;;;;;;0.00;0.00;;;;;4.79;57.64;102017.03;5042382;28;45157;-81
2021/12/21 01:21:42;;;;;;;;;0.00;0.00;;;;;5.09;57.56;102067.59;5041773;28;45260;-81
2021/12/21 01:26:47;;;;;;;;;1.75;1.75;;;;;5.00;57.64;102051.63;5045066;28;45279;-82
2021/12/21 01:29:26;;;;;;;;;1.00;1.00;;;;;4.84;57.24;102024.13;5045934;28;45994;-81
2021/12/21 01:32:03;;;;;;;;;0.25;0.25;;;;;4.72;57.23;101998.56;5049039;28;46579;-81
2021/12/21 01:42:51;;;;;;;;;0.00;0.00;;;;;5.03;58.02;102054.38;5065112;28;46181;-81
2021/12/21 01:50:46;;;;;;;;;0.00;0.00;;;;;4.35;57.76;101967.38;5065543;28;45308;-80
2021/12/21 01:53:12;;;;;;;;;1.00;0.00;;;;;4.94;57.75;102060.81;5063646;28;47180;-81
2021/12/21 01:55:37;;;;;;;;;0.00;0.00;;;;;4.74;58.07;102026.19;5064909;28;45354;-81
2021/12/21 01:58:03;;;;;;;;;0.00;0.00;;;;;4.92;57.98;102059.84;5065227;28;45323;-81
2021/12/21 02:00:29;;;;;;;;;0.00;0.00;;;;;4.70;57.67;102021.69;5065561;28;45244;-82
2021/12/21 02:02:55;;;;;;;;;0.50;0.50;;;;;4.79;58.11;102031.63;5063378;28;45490;-82
2021/12/21 02:05:20;;;;;;;;;0.00;0.00;;;;;4.97;57.91;102067.84;5063253;28;45294;-82
2021/12/21 02:07:46;;;;;;;;;0.00;0.00;;;;;4.97;57.29;102066.94;5064860;28;45730;-81
2021/12/21 02:10:11;;;;;;;;;0.00;0.00;;;;;4.89;58.42;102048.47;5064752;28;45461;-82
2021/12/21 02:12:36;;;;;;;;;0.25;0.25;;;;;4.63;57.23;101998.94;5065122;28;45251;-81
2021/12/21 02:15:03;;;;;;;;;0.00;0.00;;;;;4.61;57.74;101997.97;5065258;28;45266;-82
2021/12/21 02:20:40;;;;;;;;;0.00;0.00;;;;;4.91;58.32;102057.19;5064841;28;45299;-81
2021/12/21 02:23:23;;;;;;;;;1.00;1.00;;;;;4.61;57.46;101995.41;5064172;28;45451;-81
2021/12/21 02:30:48;;;;;;;;;0.00;0.00;;;;;4.69;58.02;102015.63;5064840;28;45242;-81
2021/12/21 02:33:14;;;;;;;;;1.50;1.50;;;;;4.61;58.37;102003.13;5048883;28;45310;-82
2021/12/21 02:35:41;;;;;;;;;1.25;1.00;;;;;4.77;57.90;102020.31;5043366;28;45273;-82
2021/12/21 02:38:06;;;;;;;;;0.00;0.00;;;;;4.83;57.73;102028.38;5044651;28;45262;-82
2021/12/21 02:40:34;;;;;;;;;0.00;0.00;;;;;4.82;58.25;102032.69;5044320;28;45238;-82
2021/12/21 02:42:59;;;;;;;;;0.00;0.00;;;;;4.44;58.49;101957.59;5044132;28;45429;-82
2021/12/21 02:45:24;;;;;;;;;0.50;0.50;;;;;4.52;58.33;101988.06;5042860;28;45788;-82
2021/12/21 02:47:50;;;;;;;;;1.00;1.00;;;;;4.65;58.11;102000.81;5044439;28;45620;-82
2021/12/21 02:50:16;;;;;;;;;0.00;0.00;;;;;4.53;58.20;101976.91;5044611;28;45291;-82
2021/12/21 02:52:41;;;;;;;;;0.00;0.00;;;;;4.72;58.39;102020.09;5042675;28;47271;-82
2021/12/21 02:55:08;;;;;;;;;0.25;0.25;;;;;4.16;58.47;101932.91;5044493;28;45400;-82
2021/12/21 02:57:33;;;;;;;;;0.00;0.00;;;;;4.41;58.90;101977.19;5045904;28;45322;-79
2021/12/21 03:00:02;;;;;;;;;1.75;1.00;;;;;4.34;58.95;101968.19;5045262;28;45279;-79
2021/12/21 03:02:29;;;;;;;;;0.00;0.00;;;;;4.62;58.96;102010.09;5043787;28;46788;-80
2021/12/21 03:04:54;;;;;;;;;1.00;0.00;;;;;4.41;58.71;101977.19;5044008;28;45325;-80
2021/12/21 03:10:01;;;;;;;;;0.00;0.00;;;;;4.46;58.51;101998.94;5043267;28;45391;-80
2021/12/21 03:13:51;;;;;;;;;2.00;0.00;;;;;4.47;59.10;102010.13;5043706;28;45255;-80
2021/12/21 03:15:15;;;;;;;;;2.00;0.00;;;;;4.18;58.74;101962.22;5043384;28;45354;-80
2021/12/21 03:17:40;;;;;;;;;2.00;0.25;;;;;4.28;59.15;101979.06;5043823;28;45330;-80
2021/12/21 03:20:06;;;;;;;;;0.00;0.00;;;;;4.30;58.80;101986.91;5044079;28;45290;-80
2021/12/21 03:22:31;;;;;;;;;0.00;0.00;;;;;4.21;59.04;101979.53;5043691;28;45310;-81
2021/12/21 03:24:57;;;;;;;;;1.25;0.00;;;;;3.51;58.74;101857.22;5043168;28;45338;-81
2021/12/21 03:27:22;;;;;;;;;0.00;0.00;;;;;4.05;59.47;101954.63;5043710;28;45608;-81
2021/12/21 03:29:48;;;;;;;;;0.50;0.00;;;;;4.22;59.54;101985.59;5043720;28;45366;-80
2021/12/21 03:32:13;;;;;;;;;1.25;1.00;;;;;4.26;59.39;102006.44;5050190;28;46429;-80
2021/12/21 03:34:39;;;;;;;;;0.75;0.75;;;;;4.00;59.78;101956.03;5063536;28;45225;-80
2021/12/21 03:37:11;;;;;;;;;0.25;0.25;;;;;3.97;59.20;101949.03;5063522;28;45398;-80
2021/12/21 03:39:36;;;;;;;;;0.00;0.00;;;;;4.12;59.14;101986.75;5063257;28;45351;-80
2021/12/21 03:42:02;;;;;;;;;3.50;0.00;;;;;4.05;59.12;101968.38;5061659;28;46606;-80
2021/12/21 03:44:28;;;;;;;;;0.75;0.00;;;;;4.29;59.52;102006.63;5061861;28;45608;-80
2021/12/21 03:46:55;;;;;;;;;0.00;0.00;;;;;4.16;59.92;101989.59;5063399;28;45425;-81
2021/12/21 03:52:04;;;;;;;;;2.50;0.50;;;;;4.33;59.57;102002.53;5062902;28;45537;-81
2021/12/21 03:54:30;;;;;;;;;0.00;0.00;;;;;4.08;59.01;101965.09;5062968;28;45249;-81
2021/12/21 03:56:55;;;;;;;;;1.00;1.00;;;;;4.02;59.24;101968.19;5063163;28;45211;-81
2021/12/21 03:59:21;;;;;;;;;0.00;0.00;;;;;3.91;59.32;101954.75;5063669;28;45195;-81
2021/12/21 04:01:48;;;;;;;;;2.00;0.50;;;;;3.36;59.57;101882.97;5062992;28;45511;-81
2021/12/21 04:04:17;;;;;;;;;0.00;0.00;;;;;4.08;59.32;101997.72;5063318;28;45367;-81
2021/12/21 04:06:43;;;;;;;;;1.00;1.00;;;;;4.17;59.92;102005.97;5063111;28;45296;-81
2021/12/21 04:09:08;;;;;;;;;0.00;0.00;;;;;4.06;59.00;101995.03;5062968;28;45202;-81
2021/12/21 04:11:34;;;;;;;;;0.00;0.00;;;;;3.84;59.70;101956.88;5062774;28;45280;-81
2021/12/21 04:14:01;;;;;;;;;0.00;0.00;;;;;4.09;59.55;102002.94;5062879;28;45366;-81
2021/12/21 04:16:27;;;;;;;;;0.00;0.00;;;;;3.84;60.06;101980.06;5063079;28;45332;-81
2021/12/21 04:18:52;;;;;;;;;0.00;0.00;;;;;3.84;59.70;101962.94;5063136;28;45272;-80
2021/12/21 04:21:18;;;;;;;;;0.00;0.00;;;;;3.84;59.66;101964.59;5062320;28;46689;-81
2021/12/21 04:23:44;;;;;;;;;0.00;0.00;;;;;3.75;59.58;101960.72;5062523;28;45537;-81
2021/12/21 04:26:11;;;;;;;;;1.75;1.00;;;;;2.88;59.75;101814.25;5062952;28;45448;-81
2021/12/21 04:28:38;;;;;;;;;0.25;0.00;;;;;3.35;60.23;101887.25;5061553;28;45498;-80
2021/12/21 04:31:04;;;;;;;;;0.25;0.25;;;;;3.94;59.83;101995.25;5062663;28;45305;-80
2021/12/21 04:33:30;;;;;;;;;1.00;1.00;;;;;3.64;60.23;101956.63;5045064;28;45206;-80
2021/12/21 04:35:56;;;;;;;;;1.00;0.00;;;;;3.28;60.50;101904.03;5042049;28;45343;-80
2021/12/21 04:38:26;;;;;;;;;0.00;0.00;;;;;3.57;60.26;101949.34;5042773;28;45258;-80
2021/12/21 04:40:59;;;;;;;;;0.00;0.00;;;;;3.55;60.22;101960.47;5040635;28;47797;-80
2021/12/21 04:43:25;;;;;;;;;1.00;0.00;;;;;3.26;60.66;101915.94;5042278;28;45393;-81
2021/12/21 04:45:50;;;;;;;;;0.25;0.25;;;;;3.54;60.74;101961.28;5041065;28;45316;-78
2021/12/21 04:48:16;;;;;;;;;0.00;0.00;;;;;3.74;61.05;101995.00;5042934;28;45368;-80
2021/12/21 04:50:42;;;;;;;;;0.00;0.00;;;;;3.46;61.23;101951.34;5042512;28;46275;-80
2021/12/21 04:53:08;;;;;;;;;0.00;0.00;;;;;3.40;60.74;101942.44;5041776;28;45429;-80
2021/12/21 04:55:34;;;;;;;;;0.00;0.00;;;;;3.42;60.87;101942.53;5041692;28;45239;-81
2021/12/21 04:58:00;;;;;;;;;1.25;1.00;;;;;3.21;60.83;101913.91;5043243;28;45171;-81
2021/12/21 05:00:25;;;;;;;;;0.00;0.00;;;;;3.20;60.97;101909.53;5045776;28;45257;-81
2021/12/21 05:02:51;;;;;;;;;4.00;1.75;;;;;3.31;60.85;101938.47;5045504;28;45212;-81
2021/12/21 05:05:17;;;;;;;;;2.75;1.00;;;;;3.32;61.12;101935.09;5045341;28;45281;-82
2021/12/21 05:07:47;;;;;;;;;0.00;0.00;;;;;3.27;61.11;101924.53;5044159;28;45316;-81
2021/12/21 05:10:13;;;;;;;;;0.25;0.25;;;;;3.37;61.69;101946.56;5044738;28;45467;-82
2021/12/21 05:12:39;;;;;;;;;1.00;0.00;;;;;3.41;61.67;101956.22;5043727;28;45816;-82
2021/12/21 05:15:06;;;;;;;;;2.00;0.00;;;;;2.89;61.31;101864.91;5044118;28;45406;-81
2021/12/21 05:17:32;;;;;;;;;1.25;1.00;;;;;2.70;61.48;101835.53;5045590;28;45469;-80
2021/12/21 05:19:58;;;;;;;;;0.00;0.00;;;;;2.84;61.75;101863.72;5043732;28;46446;-80
2021/12/21 05:22:23;;;;;;;;;0.00;0.00;;;;;2.77;61.46;101863.38;5045190;28;45364;-80
2021/12/21 05:24:51;;;;;;;;;0.00;0.00;;;;;3.49;61.54;101979.84;5044996;28;45799;-80
2021/12/21 05:27:16;;;;;;;;;0.00;0.00;;;;;3.49;62.10;101978.13;5045638;28;45738;-81
2021/12/21 05:29:42;;;;;;;;;0.00;0.00;;;;;3.24;61.66;101938.09;5044786;28;46092;-81
2021/12/21 05:32:07;;;;;;;;;2.00;0.00;;;;;3.35;61.43;101959.34;5050924;28;45315;-80
2021/12/21 05:34:32;;;;;;;;;0.00;0.00;;;;;3.47;61.48;101973.72;5066216;28;45321;-81
2021/12/21 05:36:59;;;;;;;;;0.75;0.75;;;;;3.61;61.34;101995.13;5043353;28;45263;-80
2021/12/21 05:39:37;;;;;;;;;0.00;0.00;;;;;3.28;61.93;101934.03;5035274;28;45209;-79
2021/12/21 05:42:03;;;;;;;;;1.50;0.00;;;;;3.61;62.10;102003.72;5027349;28;45275;-81
2021/12/21 05:44:28;;;;;;;;;0.00;0.00;;;;;3.18;62.22;101935.16;5031814;28;45390;-78
2021/12/21 05:46:55;;;;;;;;;0.50;0.50;;;;;3.34;61.46;101947.25;5035428;28;45291;-79
2021/12/21 05:49:20;;;;;;;;;0.00;0.00;;;;;3.50;62.11;101976.47;5032115;28;45527;-79
2021/12/21 05:51:47;;;;;;;;;0.00;0.00;;;;;3.39;62.68;101968.09;5031944;28;45360;-80
2021/12/21 05:54:15;;;;;;;;;1.50;1.50;;;;;3.39;61.59;101966.44;5034331;28;45479;-78
2021/12/21 05:56:41;;;;;;;;;0.25;0.25;;;;;3.42;62.08;101965.72;5031275;28;45843;-82
2021/12/21 05:59:06;;;;;;;;;0.00;0.00;;;;;3.19;61.93;101921.53;5029286;28;45346;-81
2021/12/21 06:01:33;;;;;;;;;0.00;0.00;;;;;3.35;61.36;101959.34;5030953;28;45726;-80
2021/12/21 06:04:00;;;;;;;;;0.75;0.75;;;;;3.48;61.92;101984.09;5032167;28;45413;-76
2021/12/21 06:06:26;;;;;;;;;0.00;0.00;;;;;3.27;61.40;101956.31;5032741;28;45759;-78
2021/12/21 06:08:53;;;;;;;;;3.00;1.50;;;;;2.87;62.24;101894.78;5033106;28;45354;-79
2021/12/21 06:11:21;;;;;;;;;1.75;1.75;;;;;2.44;62.10;101840.00;5033312;28;45330;-78
2021/12/21 06:27:04;;;;;;;;;2.00;1.00;;;;;3.21;62.81;101967.94;5032138;28;45444;-77
2021/12/21 06:29:30;;;;;;;;;0.00;0.00;;;;;3.10;62.23;101954.44;5031353;28;45432;-77
2021/12/21 06:31:56;;;;;;;;;0.00;0.00;;;;;2.86;62.65;101914.47;5036320;28;45459;-77
2021/12/21 06:34:21;;;;;;;;;0.00;0.00;;;;;3.40;63.09;102019.69;5031547;28;45450;-78
2021/12/21 06:36:47;;;;;;;;;0.25;0.25;;;;;3.34;63.08;102009.03;5032207;28;45450;-76
2021/12/21 06:39:13;;;;;;;;;1.00;1.00;;;;;3.27;61.87;102007.78;5030591;28;45431;-76
2021/12/21 06:41:39;;;;;;;;;0.00;0.00;;;;;2.86;62.45;101947.94;5046254;28;45320;-77
2021/12/21 06:44:05;;;;;;;;;1.00;0.00;;;;;2.99;63.35;101988.13;5035014;28;45279;-75
2021/12/21 06:51:54;;;;;;;;;0.75;0.75;;;;;2.70;62.81;101943.53;5031778;28;45330;-76
2021/12/21 06:54:20;;;;;;;;;0.00;0.00;;;;;2.98;63.41;101994.06;5041729;28;45315;-76
2021/12/21 06:56:46;;;;;;;;;1.75;1.00;;;;;2.96;63.60;101998.22;5034194;28;45294;-77
2021/12/21 06:59:12;;;;;;;;;0.50;0.00;;;;;2.73;63.17;101964.28;5035228;28;45630;-78
2021/12/21 07:01:38;;;;;;;;;0.00;0.00;;;;;2.59;63.28;101959.97;5035034;28;45362;-78
2021/12/21 07:04:06;;;;;;;;;0.00;0.00;;;;;2.57;62.98;101954.75;5039676;28;45246;-78
2021/12/21 07:06:34;;;;;;;;;2.75;2.00;;;;;2.86;64.11;102007.09;5033023;28;45473;-78
2021/12/21 07:19:46;;;;;;;;;2.00;0.00;;;;;2.50;63.82;101944.88;5042879;28;45465;-79
2021/12/21 07:22:13;;;;;;;;;0.00;0.00;;;;;2.85;63.96;102004.41;5038469;28;45279;-77
2021/12/21 07:24:39;;;;;;;;;1.00;1.00;;;;;2.83;64.05;102004.31;5042563;28;45393;-78
2021/12/21 07:27:05;;;;;;;;;1.25;1.25;;;;;2.82;64.17;102002.53;5043250;28;45222;-78
2021/12/21 07:29:30;;;;;;;;;1.00;1.00;;;;;2.40;64.19;101943.44;5042725;28;45385;-77
2021/12/21 07:31:56;;;;;;;;;0.00;0.00;;;;;2.73;64.93;101997.72;5047500;28;45342;-79
2021/12/21 07:34:21;;;;;;;;;0.00;0.00;;;;;2.75;64.44;101998.69;5051253;28;45849;-78
2021/12/21 07:36:47;;;;;;;;;0.00;0.00;;;;;2.68;63.80;101998.22;5031679;28;45402;-78
2021/12/21 07:39:14;;;;;;;;;1.00;1.00;;;;;2.65;64.27;102004.97;5039672;28;46712;-79
2021/12/21 07:41:41;;;;;;;;;0.00;0.00;;;;;2.61;64.18;102005.59;5040003;28;45342;-77
2021/12/21 07:44:07;;;;;;;;;0.00;0.00;;;;;2.74;64.47;102019.19;5031314;28;45332;-82
2021/12/21 07:46:33;;;;;;;;;2.00;1.00;;;;;2.28;64.14;101938.44;5039669;28;45360;-80
2021/12/21 07:48:58;;;;;;;;;0.00;0.00;;;;;2.48;64.02;101967.06;5039855;28;45769;-79
2021/12/21 07:51:24;;;;;;;;;0.00;0.00;;;;;2.50;64.68;101971.50;5040113;28;45429;-80
2021/12/21 07:53:51;;;;;;;;;1.00;0.00;;;;;2.46;64.57;101976.34;5033805;28;45538;-78
2021/12/21 07:56:16;;;;;;;;;3.50;2.75;;;;;2.60;63.90;101998.66;5038996;28;45362;-78
2021/12/21 07:58:44;;;;;;;;;0.75;0.75;;;;;2.66;63.12;101996.47;5040633;28;45447;-78
2021/12/21 08:01:09;;;;;;;;;1.50;0.00;;;;;2.74;64.25;102019.19;5042004;28;45259;-78
2021/12/21 08:03:36;;;;;;;;;0.00;0.00;;;;;2.74;63.98;102030.38;5041645;28;45393;-78
2021/12/21 08:06:07;;;;;;;;;2.00;0.00;;;;;2.57;63.93;101995.88;5042216;28;45232;-78
2021/12/21 08:08:36;;;;;;;;;1.00;1.00;;;;;2.56;63.76;101988.97;5041444;28;46051;-79
2021/12/21 08:13:33;;;;;;;;;1.00;1.00;;;;;2.81;64.04;102026.47;5042544;28;45342;-77
2021/12/21 08:15:58;;;;;;;;;1.00;1.00;;;;;2.78;63.61;102024.63;5042245;28;45472;-78
2021/12/21 08:18:23;;;;;;;;;0.00;0.00;;;;;2.81;63.45;102030.75;5042663;28;45617;-78
2021/12/21 08:20:49;;;;;;;;;1.00;1.00;;;;;2.43;64.19;101966.75;5041947;28;45216;-78
2021/12/21 08:23:14;;;;;;;;;1.50;1.00;;;;;2.80;64.58;102040.13;5042027;28;45347;-78
2021/12/21 08:25:40;;;;;;;;;0.00;0.00;;;;;2.66;64.57;102014.47;5042123;28;45273;-78
2021/12/21 08:28:06;;;;;;;;;0.00;0.00;;;;;2.89;63.92;102038.16;5041783;28;45490;-78
2021/12/21 08:31:30;;;;;;;;;0.00;0.00;;;;;2.96;63.94;102035.91;5041816;28;45319;-79
2021/12/21 08:33:56;;;;;;;;;1.75;1.00;;;;;2.94;64.06;102050.41;4996557;28;45305;-79
2021/12/21 08:36:21;;;;;;;;;0.00;0.00;;;;;2.95;63.63;102039.31;5022426;28;45248;-78
2021/12/21 08:38:47;;;;;;;;;0.00;0.00;;;;;2.71;63.86;102001.00;5021444;28;46223;-78
2021/12/21 08:41:12;;;;;;;;;1.50;1.50;;;;;2.97;63.84;102036.00;5021683;28;45334;-78
2021/12/21 08:43:38;;;;;;;;;0.00;0.00;;;;;2.65;64.30;101975.78;5022363;28;45265;-78
2021/12/21 08:46:04;;;;;;;;;0.75;0.75;;;;;2.92;63.21;102019.44;5022155;28;45250;-79
2021/12/21 08:48:31;;;;;;;;;0.50;0.25;;;;;2.11;63.52;101875.72;5036830;28;46195;-79
2021/12/21 08:50:57;;;;;;;;;0.25;0.25;;;;;2.51;63.54;101933.81;5022772;28;45453;-76
2021/12/21 08:53:24;;;;;;;;;1.00;1.00;;;;;2.90;63.74;102005.56;5022057;28;45266;-78
2021/12/21 08:55:51;;;;;;;;;0.00;0.00;;;;;2.93;63.46;102010.91;5021573;28;45468;-79
2021/12/21 08:58:17;;;;;;;;;0.00;0.00;;;;;2.62;63.09;101944.75;5021242;28;45488;-78
2021/12/21 09:00:44;;;;;;;;;1.00;1.00;;;;;3.16;63.07;102030.28;5029456;28;46554;-78
2021/12/21 09:03:11;;;;;;;;;1.00;1.00;;;;;3.23;63.24;102034.16;5041897;28;45525;-75
2021/12/21 09:05:37;;;;;;;;;0.00;0.00;;;;;3.29;62.07;102038.75;5035118;28;45403;-82
2021/12/21 09:08:04;;;;;;;;;1.00;1.00;;;;;3.22;63.38;102014.31;5021349;28;46346;-77
2021/12/21 09:10:30;;;;;;;;;1.25;0.50;;;;;3.35;61.87;102027.94;5040047;28;45298;-77
2021/12/21 09:12:57;;;;;;;;;0.50;0.00;;;;;3.19;62.77;102005.56;5040361;28;45405;-76
2021/12/21 09:15:25;;;;;;;;;0.50;0.50;;;;;3.41;62.63;102041.19;5038932;28;46141;-76
2021/12/21 09:17:51;;;;;;;;;0.00;0.00;;;;;2.95;62.34;101963.03;5039686;28;46283;-77
2021/12/21 09:20:19;;;;;;;;;2.00;2.00;;;;;3.45;62.66;102040.56;5041690;28;45389;-77
2021/12/21 09:22:46;;;;;;;;;1.25;1.25;;;;;3.44;62.20;102036.22;5039288;28;45564;-76
2021/12/21 09:25:11;;;;;;;;;2.00;2.00;;;;;3.47;61.81;102035.50;5035018;28;45564;-75
2021/12/21 09:27:37;;;;;;;;;4.00;2.50;;;;;3.49;61.74;102023.63;5031794;28;45374;-79
2021/12/21 09:30:07;;;;;;;;;2.75;1.00;;;;;3.60;61.81;102038.00;5031709;28;46219;-78
2021/12/21 09:32:33;;;;;;;;;1.25;0.75;;;;;3.75;62.11;102042.25;5034659;28;45423;-82
2021/12/21 09:34:59;;;;;;;;;0.25;0.25;;;;;3.68;62.25;102017.84;5034016;28;45284;-81
2021/12/21 09:37:25;;;;;;;;;0.00;0.00;;;;;3.74;61.71;102012.16;5035121;28;46123;-78
2021/12/21 09:39:53;;;;;;;;;1.00;1.00;;;;;3.86;61.56;102027.44;5039404;28;45669;-78
2021/12/21 09:42:28;;;;;;;;;0.50;0.50;;;;;3.94;60.97;102028.75;5037792;28;45460;-78
2021/12/21 09:44:54;;;;;;;;;1.00;1.00;;;;;4.05;60.21;102044.81;5040852;28;45550;-77
2021/12/21 09:47:20;;;;;;;;;1.00;1.00;;;;;4.01;61.38;102033.44;5030345;28;46113;-77
2021/12/21 09:49:47;;;;;;;;;0.00;0.00;;;;;4.18;60.47;102025.78;5042604;28;45405;-79
2021/12/21 09:52:18;;;;;;;;;1.50;1.00;;;;;4.26;60.26;102019.34;5045744;28;45405;-77
2021/12/21 09:54:44;;;;;;;;;0.00;0.00;;;;;4.48;61.12;102042.84;5043132;28;45711;-79
2021/12/21 09:57:10;;;;;;;;;1.50;0.50;;;;;4.10;59.86;101972.91;5053218;28;47405;-75
2021/12/21 09:59:36;;;;;;;;;2.75;2.00;;;;;4.55;59.95;102037.22;5039350;28;45435;-76
2021/12/21 10:02:03;;;;;;;;;0.00;0.00;;;;;4.51;59.82;102002.66;5032797;28;45633;-76
2021/12/21 10:04:30;;;;;;;;;0.00;0.00;;;;;4.82;59.78;102044.69;5032134;28;45440;-76
2021/12/21 10:06:57;;;;;;;;;3.75;1.00;;;;;4.62;59.12;102005.78;5032940;28;46408;-77
2021/12/21 10:09:32;;;;;;;;;0.00;0.00;;;;;4.81;59.16;102048.06;5030413;28;45422;-77
2021/12/21 10:11:58;;;;;;;;;0.25;0.25;;;;;4.80;59.55;102054.03;5039955;28;45543;-76
2021/12/21 10:14:24;;;;;;;;;0.00;0.00;;;;;4.90;59.37;102055.41;5041867;28;45370;-77
2021/12/21 10:17:06;;;;;;;;;0.00;0.00;;;;;4.72;58.97;102009.78;5042353;28;46406;-76
2021/12/21 10:19:32;;;;;;;;;1.00;1.00;;;;;5.06;59.40;102057.97;5040229;28;45385;-76
2021/12/21 10:22:15;;;;;;;;;0.00;0.00;;;;;5.22;58.51;102047.56;5041574;28;45493;-78
2021/12/21 10:24:51;;;;;;;;;2.00;2.00;;;;;5.39;58.11;102053.63;5042608;28;45352;-77
2021/12/21 10:27:19;;;;;;;;;0.00;0.00;;;;;5.53;57.96;102052.63;5036324;28;45399;-77
2021/12/21 10:29:57;;;;;;;;;2.50;0.25;;;;;5.66;57.90;102046.38;5038841;28;45393;-78
2021/12/21 10:32:28;;;;;;;;;2.00;0.75;;;;;5.51;57.37;102028.41;5047371;28;45459;-78
2021/12/21 10:35:11;;;;;;;;;1.00;1.00;;;;;5.56;57.42;102034.69;5042733;28;45526;-78
2021/12/21 10:37:40;;;;;;;;;2.00;0.50;;;;;5.43;57.55;101990.97;5035405;28;46316;-78
2021/12/21 10:40:10;;;;;;;;;2.00;0.75;;;;;5.52;56.80;102004.38;5034411;28;45403;-78
2021/12/21 10:42:46;;;;;;;;;0.25;0.00;;;;;5.79;57.50;102032.38;5041981;28;45622;-76
2021/12/21 10:45:11;;;;;;;;;0.00;0.00;;;;;4.75;57.39;101870.59;5041835;28;45623;-77
2021/12/21 10:47:37;;;;;;;;;1.00;1.00;;;;;5.63;56.70;102037.59;5041151;28;45868;-78
2021/12/21 10:50:05;;;;;;;;;4.75;1.25;;;;;5.48;56.79;102025.66;5041067;28;45343;-77
2021/12/21 10:52:31;;;;;;;;;0.00;0.00;;;;;5.44;56.81;102019.47;5039312;28;45363;-77
2021/12/21 10:54:57;;;;;;;;;1.50;1.50;;;;;5.54;56.90;102032.81;5040845;28;45461;-76
2021/12/21 10:57:32;;;;;;;;;1.25;0.50;;;;;5.09;57.04;101951.44;5040472;28;45788;-78
2021/12/21 11:00:01;;;;;;;;;1.00;1.00;;;;;5.63;56.79;102041.06;5042010;28;45410;-78
2021/12/21 11:02:31;;;;;;;;;1.25;1.00;;;;;5.75;56.54;102032.13;5034831;28;46137;-76
2021/12/21 11:05:05;;;;;;;;;1.75;1.00;;;;;5.72;56.61;102039.75;5037343;28;45508;-77
2021/12/21 11:07:38;;;;;;;;;0.00;0.00;;;;;5.63;56.81;102037.59;5037612;28;45465;-77
2021/12/21 11:10:13;;;;;;;;;2.25;1.25;;;;;5.53;56.45;102031.97;5034788;28;45427;-77
2021/12/21 11:12:46;;;;;;;;;3.00;1.00;;;;;5.51;57.05;102036.16;5041036;28;45505;-78
2021/12/21 11:15:17;;;;;;;;;2.00;2.00;;;;;5.48;56.95;102037.72;5039992;28;45910;-78
2021/12/21 11:18:13;;;;;;;;;0.75;0.75;;;;;5.43;56.94;102030.59;5029675;28;45522;-78
2021/12/21 11:20:44;;;;;;;;;1.00;1.00;;;;;5.12;56.90;101968.78;5038909;28;45468;-78
2021/12/21 11:23:18;;;;;;;;;2.25;2.25;;;;;5.35;56.94;101994.84;5041298;28;45429;-78
2021/12/21 11:25:56;;;;;;;;;;;;;;;;;;;;;
2021/12/21 11:28:29;;;;;;;;;1.75;1.00;;;;;5.12;57.13;101924.88;5037803;28;73766;-77
2021/12/21 11:31:04;;;;;;;;;2.50;0.50;;;;;4.63;56.79;101844.19;5038199;28;45406;-80
2021/12/21 11:33:42;;;;;;;;;1.00;1.00;;;;;5.36;56.31;101988.91;5045347;28;45648;-78
2021/12/21 11:39:03;;;;;;;;;4.75;1.75;;;;;4.75;56.86;101905.84;5037510;28;45441;-77
2021/12/21 11:41:42;;;;;;;;;1.00;1.00;;;;;5.33;57.27;102008.59;5056222;28;45517;-77
2021/12/21 11:44:20;;;;;;;;;1.50;1.50;;;;;5.30;56.83;102005.84;5041022;28;45437;-80
2021/12/21 11:46:55;;;;;;;;;0.00;0.00;;;;;4.64;57.33;101905.28;5039919;28;45513;-78
2021/12/21 11:49:32;;;;;;;;;0.50;0.50;;;;;5.19;57.48;102007.00;5037380;28;46980;-78
2021/12/21 11:52:14;;;;;;;;;2.00;1.00;;;;;5.24;57.54;102008.09;5039405;28;45580;-78
2021/12/21 11:54:50;;;;;;;;;0.75;0.75;;;;;4.12;57.57;101824.38;5040617;28;45499;-79
2021/12/21 11:57:21;;;;;;;;;1.00;1.00;;;;;4.00;57.81;101797.19;5041085;28;45450;-77
2021/12/21 11:59:53;;;;;;;;;2.00;0.00;;;;;4.55;57.19;101895.38;5031934;28;45394;-78
2021/12/21 12:02:30;;;;;;;;;0.50;0.50;;;;;4.44;57.95;101879.31;5040493;28;45488;-77
2021/12/21 12:04:59;;;;;;;;;1.00;0.00;;;;;4.01;57.39;101803.22;5037864;28;45470;-76
2021/12/21 12:07:25;;;;;;;;;1.00;0.00;;;;;3.84;57.52;101784.28;5040313;28;45623;-76
2021/12/21 12:10:12;;;;;;;;;1.50;1.50;;;;;4.41;57.49;101866.31;5039922;28;45498;-77
2021/12/21 12:12:39;;;;;;;;;2.00;2.00;;;;;4.42;57.03;101848.34;5053494;28;45415;-77
2021/12/21 12:15:30;;;;;;;;;2.75;1.25;;;;;5.23;57.82;101977.94;5040087;28;45346;-78
2021/12/21 12:18:23;;;;;;;;;0.25;0.00;;;;;5.20;57.40;101972.63;5039089;28;45482;-80
2021/12/21 12:21:00;;;;;;;;;1.00;1.00;;;;;4.14;57.19;101785.00;5054654;28;48224;-78
2021/12/21 12:23:32;;;;;;;;;3.00;1.00;;;;;4.75;57.56;101888.66;5041540;28;45460;-77
2021/12/21 12:26:13;;;;;;;;;1.00;1.00;;;;;4.46;57.40;101836.47;5036446;28;45327;-75
2021/12/21 12:28:49;;;;;;;;;0.00;0.00;;;;;4.96;57.58;101916.34;5039106;28;45508;-77
2021/12/21 12:31:38;;;;;;;;;2.00;1.00;;;;;4.50;57.71;101847.84;5037984;28;47191;-78
2021/12/21 12:34:05;;;;;;;;;1.50;1.50;;;;;4.62;57.46;101850.16;5033114;28;45488;-78
2021/12/21 12:40:14;;;;;;;;;2.00;0.00;;;;;5.17;57.69;101902.75;4936599;28;45614;-78
2021/12/21 12:42:40;;;;;;;;;1.25;1.25;;;;;5.64;57.60;101967.88;5032910;28;45523;-76
2021/12/21 12:45:06;;;;;;;;;1.75;1.50;;;;;5.61;57.11;101954.84;5033097;28;45422;-76
2021/12/21 12:47:37;;;;;;;;;1.50;1.00;;;;;4.91;57.06;101843.91;5037445;28;45837;-77
2021/12/21 12:50:15;;;;;;;;;1.00;1.00;;;;;5.60;57.53;101968.56;5034888;28;45375;-77
2021/12/21 12:52:53;;;;;;;;;1.00;1.00;;;;;5.51;56.92;101935.41;5037111;28;48189;-76
2021/12/21 12:55:19;;;;;;;;;2.00;1.00;;;;;4.99;56.84;101854.56;5033678;28;45420;-75
2021/12/21 12:57:59;;;;;;;;;2.00;2.00;;;;;5.54;57.74;101956.22;5037767;28;45434;-76
2021/12/21 13:00:39;;;;;;;;;0.00;0.00;;;;;4.63;57.45;101785.72;5052134;28;45547;-78
2021/12/21 13:03:07;;;;;;;;;0.00;0.00;;;;;4.64;57.05;101790.09;5037333;28;47019;-78